Picayune, MS

23:04 CST le 09 décembre 2016 (GMT -0600)
KMSCARRI2 | | Change Station

Alt. 98 ft 30.56 °N, 89.63 °W | Updated 9 seconds ago

Ciel dégagé
Ciel dégagé
36.9 ° F
Paraît 37 ° F
N
0.0
Vent Variable Vent de NNE
Gusts 0.0 mph

Aujourd'hui
Haut(e) -- | Bas -- ° F
--% Risque de précip.
Hier
Haut(e) -- | Bas -- ° F
Precip. -- pouce
Pression 30.52 pouce
Visibilité 10.0 Miles terrestres
Nuages Ciel dégagé
Refroidissement éolien 37 ° F
Point de rosée 27 ° F
Humidité 66%
Précipitations 0.00 pouce
Profondeur de la couche neigeuse Non disponible.
6:44 AM 4:58 PM
Lune gibbeuse croissante, 80% visible
METAR KASD 100453Z AUTO 01005KT 10SM CLR 02/M04 A3052 RMK AO2 SLP334 T00221039
Pression 30.52 pouce
Visibilité 10.0 Miles terrestres
Nuages Ciel dégagé
Refroidissement éolien 37 ° F
Point de rosée 27 ° F
Humidité 66%
Précipitations 0.00 pouce
Profondeur de la couche neigeuse Non disponible.
6:44 AM 4:58 PM
Lune gibbeuse croissante, 80% visible
METAR KASD 100453Z AUTO 01005KT 10SM CLR 02/M04 A3052 RMK AO2 SLP334 T00221039

10-Day Weather Forecast

Almanac

Astronomie

Dec. 09, 2016 Lever Coucher
Temps réel
Crépuscule civil
Crépuscule nautique
Crépuscule astronomique
Lune
Durée de lumière visible
Longueur du jour
Tomorrow will be .
, % of the Moon is Illuminated

Extrêmes aujourd'hui

State Highs State Lows

Community

WunderPhotos

Upload Photos

1,956,529 Photos téléchargées !

WunderBlog® & News

Nearby

Qualité de l'air

  Qualité de l'air Indice de la qualité de l'air Polluant
Not available.

Épaisseur de neige

Station Depth Altitude

Activité sismique

Ville Distance Mag. Time & Date
Minimum magnitude displayed is 2.5.

Températures des eaux côtières

Lieu Température

Stations

Stations météo à proximité

Emplacement de la station Température Refroidissement éolien Point de rosée Humidité Vent Precip. Alt. Mise à jour Type
                   

Watches & Warnings

There are currently no watches in effect.